sensor_id;sensor_type;location;lat;lon;timestamp;temperature;humidity
66708;DHT22;53622;0.000;0.000;2023-09-08T00:01:15;22.40;63.90
66708;DHT22;53622;0.000;0.000;2023-09-08T00:03:44;22.50;63.50
66708;DHT22;53622;0.000;0.000;2023-09-08T00:06:12;22.50;63.60
66708;DHT22;53622;0.000;0.000;2023-09-08T00:08:43;22.50;64.10
66708;DHT22;53622;0.000;0.000;2023-09-08T00:11:12;22.30;64.30
66708;DHT22;53622;0.000;0.000;2023-09-08T00:13:41;22.20;64.90
66708;DHT22;53622;0.000;0.000;2023-09-08T00:16:10;22.20;65.30
66708;DHT22;53622;0.000;0.000;2023-09-08T00:18:39;22.20;65.50
66708;DHT22;53622;0.000;0.000;2023-09-08T00:21:08;22.20;65.20
66708;DHT22;53622;0.000;0.000;2023-09-08T00:23:37;22.30;64.90
66708;DHT22;53622;0.000;0.000;2023-09-08T00:26:08;22.30;64.90
66708;DHT22;53622;0.000;0.000;2023-09-08T00:28:37;22.30;65.30
66708;DHT22;53622;0.000;0.000;2023-09-08T00:31:06;22.20;65.80
66708;DHT22;53622;0.000;0.000;2023-09-08T00:33:36;22.20;65.90
66708;DHT22;53622;0.000;0.000;2023-09-08T00:36:07;22.20;66.00
66708;DHT22;53622;0.000;0.000;2023-09-08T00:38:35;22.20;66.20
66708;DHT22;53622;0.000;0.000;2023-09-08T00:41:05;22.10;66.50
66708;DHT22;53622;0.000;0.000;2023-09-08T00:43:35;22.20;66.20
66708;DHT22;53622;0.000;0.000;2023-09-08T00:46:06;22.20;66.10
66708;DHT22;53622;0.000;0.000;2023-09-08T00:48:35;22.20;65.90
66708;DHT22;53622;0.000;0.000;2023-09-08T00:51:05;22.10;66.30
66708;DHT22;53622;0.000;0.000;2023-09-08T00:53:35;22.10;66.20
66708;DHT22;53622;0.000;0.000;2023-09-08T00:56:04;22.10;66.30
66708;DHT22;53622;0.000;0.000;2023-09-08T00:58:35;22.10;66.20
66708;DHT22;53622;0.000;0.000;2023-09-08T01:01:04;22.00;66.50
66708;DHT22;53622;0.000;0.000;2023-09-08T01:03:34;21.90;66.30
66708;DHT22;53622;0.000;0.000;2023-09-08T01:06:03;21.90;66.50
66708;DHT22;53622;0.000;0.000;2023-09-08T01:08:34;21.90;66.30
66708;DHT22;53622;0.000;0.000;2023-09-08T01:11:04;21.80;66.50
66708;DHT22;53622;0.000;0.000;2023-09-08T01:13:35;21.80;66.60
66708;DHT22;53622;0.000;0.000;2023-09-08T01:16:04;21.80;66.40
66708;DHT22;53622;0.000;0.000;2023-09-08T01:18:34;21.80;66.10
66708;DHT22;53622;0.000;0.000;2023-09-08T01:21:26;21.90;65.90
66708;DHT22;53622;0.000;0.000;2023-09-08T01:24:23;22.00;65.80
66708;DHT22;53622;0.000;0.000;2023-09-08T01:26:56;22.00;66.00
66708;DHT22;53622;0.000;0.000;2023-09-08T01:29:26;22.00;66.00
66708;DHT22;53622;0.000;0.000;2023-09-08T01:31:57;21.80;66.40
66708;DHT22;53622;0.000;0.000;2023-09-08T01:34:26;21.80;66.00
66708;DHT22;53622;0.000;0.000;2023-09-08T01:36:55;21.80;66.20
66708;DHT22;53622;0.000;0.000;2023-09-08T01:39:24;21.70;66.30
66708;DHT22;53622;0.000;0.000;2023-09-08T01:41:53;21.70;67.10
66708;DHT22;53622;0.000;0.000;2023-09-08T01:44:24;21.80;66.20
66708;DHT22;53622;0.000;0.000;2023-09-08T01:46:53;21.70;66.10
66708;DHT22;53622;0.000;0.000;2023-09-08T01:49:24;21.60;66.70
66708;DHT22;53622;0.000;0.000;2023-09-08T01:51:53;21.60;66.60
66708;DHT22;53622;0.000;0.000;2023-09-08T01:54:23;21.50;67.30
66708;DHT22;53622;0.000;0.000;2023-09-08T01:56:52;21.40;67.20
66708;DHT22;53622;0.000;0.000;2023-09-08T01:59:21;21.40;67.10
66708;DHT22;53622;0.000;0.000;2023-09-08T02:01:52;21.40;66.80
66708;DHT22;53622;0.000;0.000;2023-09-08T02:04:21;21.50;66.30
66708;DHT22;53622;0.000;0.000;2023-09-08T02:06:50;21.60;66.00
66708;DHT22;53622;0.000;0.000;2023-09-08T02:09:20;21.70;65.80
66708;DHT22;53622;0.000;0.000;2023-09-08T02:11:48;21.70;65.90
66708;DHT22;53622;0.000;0.000;2023-09-08T02:14:17;21.60;67.00
66708;DHT22;53622;0.000;0.000;2023-09-08T02:16:46;21.40;67.60
66708;DHT22;53622;0.000;0.000;2023-09-08T02:19:17;21.40;67.80
66708;DHT22;53622;0.000;0.000;2023-09-08T02:21:46;21.30;67.80
66708;DHT22;53622;0.000;0.000;2023-09-08T02:24:15;21.30;67.90
66708;DHT22;53622;0.000;0.000;2023-09-08T02:26:44;21.30;67.50
66708;DHT22;53622;0.000;0.000;2023-09-08T02:29:13;21.50;66.90
66708;DHT22;53622;0.000;0.000;2023-09-08T02:31:42;21.60;66.50
66708;DHT22;53622;0.000;0.000;2023-09-08T02:34:13;21.60;66.30
66708;DHT22;53622;0.000;0.000;2023-09-08T02:36:44;21.70;66.40
66708;DHT22;53622;0.000;0.000;2023-09-08T02:39:16;21.70;67.30
66708;DHT22;53622;0.000;0.000;2023-09-08T02:41:46;21.70;66.60
66708;DHT22;53622;0.000;0.000;2023-09-08T02:44:15;21.60;67.00
66708;DHT22;53622;0.000;0.000;2023-09-08T02:46:44;21.40;67.60
66708;DHT22;53622;0.000;0.000;2023-09-08T02:49:13;21.30;68.10
66708;DHT22;53622;0.000;0.000;2023-09-08T02:51:43;21.30;68.10
66708;DHT22;53622;0.000;0.000;2023-09-08T02:54:12;21.30;68.30
66708;DHT22;53622;0.000;0.000;2023-09-08T02:56:41;21.20;68.40
66708;DHT22;53622;0.000;0.000;2023-09-08T02:59:11;21.30;67.90
66708;DHT22;53622;0.000;0.000;2023-09-08T03:01:41;21.20;67.70
66708;DHT22;53622;0.000;0.000;2023-09-08T03:04:10;21.10;68.10
66708;DHT22;53622;0.000;0.000;2023-09-08T03:06:39;21.10;68.00
66708;DHT22;53622;0.000;0.000;2023-09-08T03:09:10;21.10;68.00
66708;DHT22;53622;0.000;0.000;2023-09-08T03:11:39;21.10;68.00
66708;DHT22;53622;0.000;0.000;2023-09-08T03:14:07;21.20;67.50
66708;DHT22;53622;0.000;0.000;2023-09-08T03:16:37;21.30;67.30
66708;DHT22;53622;0.000;0.000;2023-09-08T03:19:06;21.30;67.40
66708;DHT22;53622;0.000;0.000;2023-09-08T03:21:35;21.20;67.60
66708;DHT22;53622;0.000;0.000;2023-09-08T03:24:05;21.20;68.00
66708;DHT22;53622;0.000;0.000;2023-09-08T03:26:35;21.10;68.50
66708;DHT22;53622;0.000;0.000;2023-09-08T03:29:04;21.10;68.70
66708;DHT22;53622;0.000;0.000;2023-09-08T03:31:33;21.20;68.20
66708;DHT22;53622;0.000;0.000;2023-09-08T03:34:03;21.30;67.80
66708;DHT22;53622;0.000;0.000;2023-09-08T03:36:32;21.30;67.30
66708;DHT22;53622;0.000;0.000;2023-09-08T03:39:04;21.30;67.10
66708;DHT22;53622;0.000;0.000;2023-09-08T03:41:33;21.30;66.90
66708;DHT22;53622;0.000;0.000;2023-09-08T03:44:03;21.30;66.80
66708;DHT22;53622;0.000;0.000;2023-09-08T03:46:32;21.30;66.80
66708;DHT22;53622;0.000;0.000;2023-09-08T03:49:02;21.30;67.00
66708;DHT22;53622;0.000;0.000;2023-09-08T03:51:31;21.30;67.00
66708;DHT22;53622;0.000;0.000;2023-09-08T03:54:00;21.30;67.00
66708;DHT22;53622;0.000;0.000;2023-09-08T03:56:30;21.30;67.00
66708;DHT22;53622;0.000;0.000;2023-09-08T03:58:59;21.20;67.60
66708;DHT22;53622;0.000;0.000;2023-09-08T04:01:30;21.10;68.10
66708;DHT22;53622;0.000;0.000;2023-09-08T04:03:59;21.10;68.40
66708;DHT22;53622;0.000;0.000;2023-09-08T04:06:28;20.90;68.90
66708;DHT22;53622;0.000;0.000;2023-09-08T04:08:57;20.80;69.40
66708;DHT22;53622;0.000;0.000;2023-09-08T04:11:26;20.80;69.40
66708;DHT22;53622;0.000;0.000;2023-09-08T04:13:55;20.80;69.70
66708;DHT22;53622;0.000;0.000;2023-09-08T04:16:25;20.70;69.80
66708;DHT22;53622;0.000;0.000;2023-09-08T04:18:55;20.70;69.50
66708;DHT22;53622;0.000;0.000;2023-09-08T04:21:25;20.80;69.60
66708;DHT22;53622;0.000;0.000;2023-09-08T04:23:54;20.70;70.00
66708;DHT22;53622;0.000;0.000;2023-09-08T04:26:23;20.70;69.80
66708;DHT22;53622;0.000;0.000;2023-09-08T04:28:52;20.70;70.00
66708;DHT22;53622;0.000;0.000;2023-09-08T04:31:21;20.70;69.80
66708;DHT22;53622;0.000;0.000;2023-09-08T04:33:51;20.70;70.10
66708;DHT22;53622;0.000;0.000;2023-09-08T04:36:22;20.60;70.30
66708;DHT22;53622;0.000;0.000;2023-09-08T04:38:52;20.70;69.80
66708;DHT22;53622;0.000;0.000;2023-09-08T04:41:21;20.70;69.40
66708;DHT22;53622;0.000;0.000;2023-09-08T04:43:50;20.70;69.80
66708;DHT22;53622;0.000;0.000;2023-09-08T04:46:20;20.60;70.00
66708;DHT22;53622;0.000;0.000;2023-09-08T04:48:49;20.70;69.60
66708;DHT22;53622;0.000;0.000;2023-09-08T04:51:18;20.60;69.90
66708;DHT22;53622;0.000;0.000;2023-09-08T04:53:49;20.50;70.40
66708;DHT22;53622;0.000;0.000;2023-09-08T04:56:18;20.60;70.40
66708;DHT22;53622;0.000;0.000;2023-09-08T04:58:47;20.70;69.50
66708;DHT22;53622;0.000;0.000;2023-09-08T05:01:16;20.70;69.20
66708;DHT22;53622;0.000;0.000;2023-09-08T05:03:46;20.80;69.20
66708;DHT22;53622;0.000;0.000;2023-09-08T05:06:15;20.80;69.30
66708;DHT22;53622;0.000;0.000;2023-09-08T05:08:44;20.70;69.90
66708;DHT22;53622;0.000;0.000;2023-09-08T05:11:14;20.60;70.90
66708;DHT22;53622;0.000;0.000;2023-09-08T05:13:45;20.60;71.30
66708;DHT22;53622;0.000;0.000;2023-09-08T05:16:14;20.60;71.20
66708;DHT22;53622;0.000;0.000;2023-09-08T05:18:50;20.50;71.60
66708;DHT22;53622;0.000;0.000;2023-09-08T05:21:20;20.50;71.30
66708;DHT22;53622;0.000;0.000;2023-09-08T05:23:49;20.60;71.00
66708;DHT22;53622;0.000;0.000;2023-09-08T05:26:19;20.80;70.30
66708;DHT22;53622;0.000;0.000;2023-09-08T05:28:48;20.90;69.50
66708;DHT22;53622;0.000;0.000;2023-09-08T05:31:18;21.10;69.00
66708;DHT22;53622;0.000;0.000;2023-09-08T05:33:47;21.20;68.40
66708;DHT22;53622;0.000;0.000;2023-09-08T05:36:16;21.30;68.10
66708;DHT22;53622;0.000;0.000;2023-09-08T05:38:45;21.40;67.70
66708;DHT22;53622;0.000;0.000;2023-09-08T05:41:14;21.50;67.30
66708;DHT22;53622;0.000;0.000;2023-09-08T05:43:44;21.50;67.00
66708;DHT22;53622;0.000;0.000;2023-09-08T05:46:14;21.60;66.90
66708;DHT22;53622;0.000;0.000;2023-09-08T05:48:43;21.60;66.60
66708;DHT22;53622;0.000;0.000;2023-09-08T05:51:13;21.70;66.50
66708;DHT22;53622;0.000;0.000;2023-09-08T05:53:43;21.70;66.50
66708;DHT22;53622;0.000;0.000;2023-09-08T05:56:12;21.70;66.40
66708;DHT22;53622;0.000;0.000;2023-09-08T05:58:44;21.90;66.50
66708;DHT22;53622;0.000;0.000;2023-09-08T06:01:13;21.90;66.30
66708;DHT22;53622;0.000;0.000;2023-09-08T06:03:42;22.00;66.30
66708;DHT22;53622;0.000;0.000;2023-09-08T06:06:12;22.00;66.40
66708;DHT22;53622;0.000;0.000;2023-09-08T06:08:42;22.00;66.40
66708;DHT22;53622;0.000;0.000;2023-09-08T06:11:11;22.00;66.40
66708;DHT22;53622;0.000;0.000;2023-09-08T06:13:41;22.10;66.50
66708;DHT22;53622;0.000;0.000;2023-09-08T06:16:12;22.10;66.60
66708;DHT22;53622;0.000;0.000;2023-09-08T06:18:41;22.10;66.60
66708;DHT22;53622;0.000;0.000;2023-09-08T06:21:15;22.10;66.60
66708;DHT22;53622;0.000;0.000;2023-09-08T06:23:44;22.10;66.50
66708;DHT22;53622;0.000;0.000;2023-09-08T06:26:14;22.10;66.30
66708;DHT22;53622;0.000;0.000;2023-09-08T06:28:43;22.20;66.20
66708;DHT22;53622;0.000;0.000;2023-09-08T06:31:14;22.20;66.00
66708;DHT22;53622;0.000;0.000;2023-09-08T06:33:44;22.30;65.90
66708;DHT22;53622;0.000;0.000;2023-09-08T06:36:17;22.30;65.70
66708;DHT22;53622;0.000;0.000;2023-09-08T06:38:47;22.30;65.60
66708;DHT22;53622;0.000;0.000;2023-09-08T06:41:16;22.30;65.50
66708;DHT22;53622;0.000;0.000;2023-09-08T06:43:45;22.30;65.40
66708;DHT22;53622;0.000;0.000;2023-09-08T06:46:22;22.40;65.40
66708;DHT22;53622;0.000;0.000;2023-09-08T06:48:52;22.40;65.40
66708;DHT22;53622;0.000;0.000;2023-09-08T06:51:21;22.40;65.30
66708;DHT22;53622;0.000;0.000;2023-09-08T06:53:54;22.50;65.50
66708;DHT22;53622;0.000;0.000;2023-09-08T06:56:28;22.50;65.50
66708;DHT22;53622;0.000;0.000;2023-09-08T06:58:58;22.50;65.40
66708;DHT22;53622;0.000;0.000;2023-09-08T07:01:30;22.50;65.40
66708;DHT22;53622;0.000;0.000;2023-09-08T07:04:00;22.50;65.30
66708;DHT22;53622;0.000;0.000;2023-09-08T07:06:30;22.50;65.20
66708;DHT22;53622;0.000;0.000;2023-09-08T07:08:59;22.50;65.10
66708;DHT22;53622;0.000;0.000;2023-09-08T07:11:29;22.60;65.10
66708;DHT22;53622;0.000;0.000;2023-09-08T07:13:58;22.60;65.10
66708;DHT22;53622;0.000;0.000;2023-09-08T07:16:27;22.70;65.10
66708;DHT22;53622;0.000;0.000;2023-09-08T07:18:58;22.60;65.00
66708;DHT22;53622;0.000;0.000;2023-09-08T07:21:29;22.60;65.10
66708;DHT22;53622;0.000;0.000;2023-09-08T07:23:58;22.60;65.00
66708;DHT22;53622;0.000;0.000;2023-09-08T07:26:29;22.60;65.00
66708;DHT22;53622;0.000;0.000;2023-09-08T07:28:58;22.60;64.90
66708;DHT22;53622;0.000;0.000;2023-09-08T07:31:28;22.60;64.90
66708;DHT22;53622;0.000;0.000;2023-09-08T07:33:59;22.60;64.90
66708;DHT22;53622;0.000;0.000;2023-09-08T07:36:28;22.70;64.90
66708;DHT22;53622;0.000;0.000;2023-09-08T07:38:57;22.70;65.00
66708;DHT22;53622;0.000;0.000;2023-09-08T07:41:26;22.70;64.90
66708;DHT22;53622;0.000;0.000;2023-09-08T07:43:55;22.70;64.90
66708;DHT22;53622;0.000;0.000;2023-09-08T07:46:25;22.70;64.90
66708;DHT22;53622;0.000;0.000;2023-09-08T07:48:55;22.70;64.80
66708;DHT22;53622;0.000;0.000;2023-09-08T07:51:25;22.70;64.80
66708;DHT22;53622;0.000;0.000;2023-09-08T07:53:54;22.70;64.80
66708;DHT22;53622;0.000;0.000;2023-09-08T07:56:24;22.70;64.80
66708;DHT22;53622;0.000;0.000;2023-09-08T07:58:53;22.70;64.80
66708;DHT22;53622;0.000;0.000;2023-09-08T08:01:22;22.70;64.70
66708;DHT22;53622;0.000;0.000;2023-09-08T08:03:52;22.70;64.70
66708;DHT22;53622;0.000;0.000;2023-09-08T08:06:22;22.70;64.70
66708;DHT22;53622;0.000;0.000;2023-09-08T08:08:58;22.70;64.70
66708;DHT22;53622;0.000;0.000;2023-09-08T08:11:29;22.70;64.60
66708;DHT22;53622;0.000;0.000;2023-09-08T08:13:58;22.70;64.60
66708;DHT22;53622;0.000;0.000;2023-09-08T08:16:28;22.70;64.70
66708;DHT22;53622;0.000;0.000;2023-09-08T08:18:57;22.80;64.70
66708;DHT22;53622;0.000;0.000;2023-09-08T08:21:26;22.80;64.60
66708;DHT22;53622;0.000;0.000;2023-09-08T08:23:56;22.80;64.60
66708;DHT22;53622;0.000;0.000;2023-09-08T08:26:26;22.80;64.60
66708;DHT22;53622;0.000;0.000;2023-09-08T08:29:00;22.80;64.50
66708;DHT22;53622;0.000;0.000;2023-09-08T08:31:29;22.90;64.50
66708;DHT22;53622;0.000;0.000;2023-09-08T08:33:58;22.90;64.40
66708;DHT22;53622;0.000;0.000;2023-09-08T08:36:27;22.90;64.60
66708;DHT22;53622;0.000;0.000;2023-09-08T08:38:56;22.90;64.60
66708;DHT22;53622;0.000;0.000;2023-09-08T08:41:28;22.90;64.60
66708;DHT22;53622;0.000;0.000;2023-09-08T08:43:58;22.90;64.70
66708;DHT22;53622;0.000;0.000;2023-09-08T08:46:28;22.90;65.00
66708;DHT22;53622;0.000;0.000;2023-09-08T08:48:58;22.90;64.90
66708;DHT22;53622;0.000;0.000;2023-09-08T08:51:30;22.90;65.10
66708;DHT22;53622;0.000;0.000;2023-09-08T08:53:59;22.90;65.10
66708;DHT22;53622;0.000;0.000;2023-09-08T08:56:36;22.90;65.00
66708;DHT22;53622;0.000;0.000;2023-09-08T08:59:05;22.90;65.10
66708;DHT22;53622;0.000;0.000;2023-09-08T09:01:35;23.00;65.10
66708;DHT22;53622;0.000;0.000;2023-09-08T09:04:05;23.00;65.10
66708;DHT22;53622;0.000;0.000;2023-09-08T09:06:45;22.90;65.10
66708;DHT22;53622;0.000;0.000;2023-09-08T09:09:14;23.00;65.20
66708;DHT22;53622;0.000;0.000;2023-09-08T09:11:45;23.00;65.10
66708;DHT22;53622;0.000;0.000;2023-09-08T09:14:17;23.00;65.20
66708;DHT22;53622;0.000;0.000;2023-09-08T09:16:46;23.00;65.20
66708;DHT22;53622;0.000;0.000;2023-09-08T09:19:21;23.00;65.10
66708;DHT22;53622;0.000;0.000;2023-09-08T09:21:55;23.10;65.40
66708;DHT22;53622;0.000;0.000;2023-09-08T09:24:30;23.10;65.30
66708;DHT22;53622;0.000;0.000;2023-09-08T09:27:05;23.10;65.40
66708;DHT22;53622;0.000;0.000;2023-09-08T09:29:46;23.10;65.30
66708;DHT22;53622;0.000;0.000;2023-09-08T09:32:16;23.10;65.30
66708;DHT22;53622;0.000;0.000;2023-09-08T09:34:48;23.10;65.20
66708;DHT22;53622;0.000;0.000;2023-09-08T09:37:18;23.10;65.50
66708;DHT22;53622;0.000;0.000;2023-09-08T09:39:49;23.00;65.40
66708;DHT22;53622;0.000;0.000;2023-09-08T09:42:20;23.10;65.50
66708;DHT22;53622;0.000;0.000;2023-09-08T09:44:51;23.00;65.40
66708;DHT22;53622;0.000;0.000;2023-09-08T09:47:20;23.10;65.30
66708;DHT22;53622;0.000;0.000;2023-09-08T09:49:49;23.10;65.30
66708;DHT22;53622;0.000;0.000;2023-09-08T09:52:22;23.10;65.20
66708;DHT22;53622;0.000;0.000;2023-09-08T09:54:53;23.10;65.20
66708;DHT22;53622;0.000;0.000;2023-09-08T09:57:26;23.10;66.00
66708;DHT22;53622;0.000;0.000;2023-09-08T09:59:56;23.10;65.10
66708;DHT22;53622;0.000;0.000;2023-09-08T10:02:26;23.10;65.30
66708;DHT22;53622;0.000;0.000;2023-09-08T10:05:10;23.10;65.40
66708;DHT22;53622;0.000;0.000;2023-09-08T10:07:39;23.20;65.40
66708;DHT22;53622;0.000;0.000;2023-09-08T10:10:09;23.20;65.50
66708;DHT22;53622;0.000;0.000;2023-09-08T10:12:42;23.20;65.60
66708;DHT22;53622;0.000;0.000;2023-09-08T10:15:12;23.30;65.60
66708;DHT22;53622;0.000;0.000;2023-09-08T10:17:44;23.20;65.60
66708;DHT22;53622;0.000;0.000;2023-09-08T10:20:14;23.30;65.60
66708;DHT22;53622;0.000;0.000;2023-09-08T10:22:45;23.30;65.60
66708;DHT22;53622;0.000;0.000;2023-09-08T10:25:16;23.30;65.80
66708;DHT22;53622;0.000;0.000;2023-09-08T10:27:49;23.20;65.40
66708;DHT22;53622;0.000;0.000;2023-09-08T10:30:19;23.30;65.40
66708;DHT22;53622;0.000;0.000;2023-09-08T10:32:49;23.30;65.40
66708;DHT22;53622;0.000;0.000;2023-09-08T10:35:19;23.40;65.50
66708;DHT22;53622;0.000;0.000;2023-09-08T10:37:49;23.30;65.30
66708;DHT22;53622;0.000;0.000;2023-09-08T10:40:22;23.30;65.40
66708;DHT22;53622;0.000;0.000;2023-09-08T10:43:08;23.40;66.20
66708;DHT22;53622;0.000;0.000;2023-09-08T10:45:39;23.40;65.60
66708;DHT22;53622;0.000;0.000;2023-09-08T10:48:10;23.30;65.30
66708;DHT22;53622;0.000;0.000;2023-09-08T10:50:42;23.40;65.50
66708;DHT22;53622;0.000;0.000;2023-09-08T10:53:14;23.40;65.40
66708;DHT22;53622;0.000;0.000;2023-09-08T10:55:44;23.40;65.70
66708;DHT22;53622;0.000;0.000;2023-09-08T10:58:32;23.40;65.60
66708;DHT22;53622;0.000;0.000;2023-09-08T11:01:05;23.50;65.60
66708;DHT22;53622;0.000;0.000;2023-09-08T11:03:45;23.60;65.40
66708;DHT22;53622;0.000;0.000;2023-09-08T11:06:16;23.60;65.20
66708;DHT22;53622;0.000;0.000;2023-09-08T11:08:46;23.70;65.10
66708;DHT22;53622;0.000;0.000;2023-09-08T11:11:16;23.70;65.20
66708;DHT22;53622;0.000;0.000;2023-09-08T11:13:47;23.80;65.40
66708;DHT22;53622;0.000;0.000;2023-09-08T11:16:16;23.80;65.40
66708;DHT22;53622;0.000;0.000;2023-09-08T11:18:51;23.80;65.40
66708;DHT22;53622;0.000;0.000;2023-09-08T11:21:20;23.90;65.00
66708;DHT22;53622;0.000;0.000;2023-09-08T11:23:49;23.90;64.80
66708;DHT22;53622;0.000;0.000;2023-09-08T11:26:19;23.90;64.70
66708;DHT22;53622;0.000;0.000;2023-09-08T11:28:49;23.90;64.60
66708;DHT22;53622;0.000;0.000;2023-09-08T11:31:18;24.00;64.60
66708;DHT22;53622;0.000;0.000;2023-09-08T11:33:49;24.00;64.40
66708;DHT22;53622;0.000;0.000;2023-09-08T11:36:18;24.00;64.40
66708;DHT22;53622;0.000;0.000;2023-09-08T11:38:47;24.10;64.50
66708;DHT22;53622;0.000;0.000;2023-09-08T11:41:17;24.10;64.60
66708;DHT22;53622;0.000;0.000;2023-09-08T11:43:51;24.10;64.50
66708;DHT22;53622;0.000;0.000;2023-09-08T11:46:21;24.20;64.20
66708;DHT22;53622;0.000;0.000;2023-09-08T11:48:50;24.20;64.10
66708;DHT22;53622;0.000;0.000;2023-09-08T11:51:22;24.20;64.00
66708;DHT22;53622;0.000;0.000;2023-09-08T11:53:52;24.20;64.00
66708;DHT22;53622;0.000;0.000;2023-09-08T11:56:21;24.20;64.10
66708;DHT22;53622;0.000;0.000;2023-09-08T11:58:52;24.10;64.00
66708;DHT22;53622;0.000;0.000;2023-09-08T12:01:22;24.10;64.10
66708;DHT22;53622;0.000;0.000;2023-09-08T12:03:51;24.10;64.10
66708;DHT22;53622;0.000;0.000;2023-09-08T12:06:25;24.10;64.20
66708;DHT22;53622;0.000;0.000;2023-09-08T12:08:55;24.10;64.10
66708;DHT22;53622;0.000;0.000;2023-09-08T12:11:32;24.10;64.20
66708;DHT22;53622;0.000;0.000;2023-09-08T12:14:07;24.10;64.10
66708;DHT22;53622;0.000;0.000;2023-09-08T12:16:37;24.10;64.10
66708;DHT22;53622;0.000;0.000;2023-09-08T12:19:07;24.00;64.00
66708;DHT22;53622;0.000;0.000;2023-09-08T12:21:54;24.10;64.00
66708;DHT22;53622;0.000;0.000;2023-09-08T12:24:48;24.10;64.00
66708;DHT22;53622;0.000;0.000;2023-09-08T12:27:18;24.00;63.90
66708;DHT22;53622;0.000;0.000;2023-09-08T12:29:57;24.00;64.10
66708;DHT22;53622;0.000;0.000;2023-09-08T12:32:29;24.00;64.10
66708;DHT22;53622;0.000;0.000;2023-09-08T12:35:03;24.00;64.20
66708;DHT22;53622;0.000;0.000;2023-09-08T12:37:33;24.00;64.10
66708;DHT22;53622;0.000;0.000;2023-09-08T12:40:05;24.00;64.10
66708;DHT22;53622;0.000;0.000;2023-09-08T12:42:34;24.00;64.10
66708;DHT22;53622;0.000;0.000;2023-09-08T12:45:21;24.00;64.10
66708;DHT22;53622;0.000;0.000;2023-09-08T12:47:51;24.00;64.20
66708;DHT22;53622;0.000;0.000;2023-09-08T12:50:21;24.00;64.00
66708;DHT22;53622;0.000;0.000;2023-09-08T12:52:51;24.00;64.20
66708;DHT22;53622;0.000;0.000;2023-09-08T12:55:21;24.00;64.10
66708;DHT22;53622;0.000;0.000;2023-09-08T12:57:50;24.00;64.10
66708;DHT22;53622;0.000;0.000;2023-09-08T13:00:23;24.00;64.10
66708;DHT22;53622;0.000;0.000;2023-09-08T13:02:53;24.00;64.10
66708;DHT22;53622;0.000;0.000;2023-09-08T13:05:22;24.00;64.10
66708;DHT22;53622;0.000;0.000;2023-09-08T13:07:51;24.00;64.10
66708;DHT22;53622;0.000;0.000;2023-09-08T13:10:20;24.00;64.10
66708;DHT22;53622;0.000;0.000;2023-09-08T13:12:49;24.00;64.10
66708;DHT22;53622;0.000;0.000;2023-09-08T13:15:18;24.00;64.00
66708;DHT22;53622;0.000;0.000;2023-09-08T13:17:49;24.00;64.00
66708;DHT22;53622;0.000;0.000;2023-09-08T13:20:19;24.00;64.20
66708;DHT22;53622;0.000;0.000;2023-09-08T13:22:48;24.00;64.40
66708;DHT22;53622;0.000;0.000;2023-09-08T13:25:18;24.00;64.60
66708;DHT22;53622;0.000;0.000;2023-09-08T13:27:47;24.00;64.40
66708;DHT22;53622;0.000;0.000;2023-09-08T13:30:16;24.00;64.50
66708;DHT22;53622;0.000;0.000;2023-09-08T13:32:46;24.00;64.50
66708;DHT22;53622;0.000;0.000;2023-09-08T13:35:17;24.00;64.40
66708;DHT22;53622;0.000;0.000;2023-09-08T13:37:46;24.00;64.40
66708;DHT22;53622;0.000;0.000;2023-09-08T13:40:15;24.00;64.40
66708;DHT22;53622;0.000;0.000;2023-09-08T13:42:44;24.00;64.30
66708;DHT22;53622;0.000;0.000;2023-09-08T13:45:13;24.00;64.20
66708;DHT22;53622;0.000;0.000;2023-09-08T13:47:42;24.00;64.20
66708;DHT22;53622;0.000;0.000;2023-09-08T13:50:12;24.10;64.30
66708;DHT22;53622;0.000;0.000;2023-09-08T13:52:45;24.00;64.20
66708;DHT22;53622;0.000;0.000;2023-09-08T13:55:17;24.00;64.20
66708;DHT22;53622;0.000;0.000;2023-09-08T13:58:05;24.10;64.30
66708;DHT22;53622;0.000;0.000;2023-09-08T14:00:36;24.10;64.20
66708;DHT22;53622;0.000;0.000;2023-09-08T14:03:12;24.10;64.30
66708;DHT22;53622;0.000;0.000;2023-09-08T14:05:47;24.10;64.20
66708;DHT22;53622;0.000;0.000;2023-09-08T14:08:20;24.10;64.10
66708;DHT22;53622;0.000;0.000;2023-09-08T14:10:56;24.10;64.20
66708;DHT22;53622;0.000;0.000;2023-09-08T14:13:28;24.10;64.20
66708;DHT22;53622;0.000;0.000;2023-09-08T14:15:57;24.10;64.20
66708;DHT22;53622;0.000;0.000;2023-09-08T14:18:29;24.10;64.20
66708;DHT22;53622;0.000;0.000;2023-09-08T14:20:59;24.10;64.30
66708;DHT22;53622;0.000;0.000;2023-09-08T14:23:29;24.20;64.20
66708;DHT22;53622;0.000;0.000;2023-09-08T14:25:58;24.10;64.20
66708;DHT22;53622;0.000;0.000;2023-09-08T14:28:27;24.10;64.20
66708;DHT22;53622;0.000;0.000;2023-09-08T14:30:59;24.20;65.00
66708;DHT22;53622;0.000;0.000;2023-09-08T14:33:28;24.20;64.20
66708;DHT22;53622;0.000;0.000;2023-09-08T14:35:57;24.20;64.10
66708;DHT22;53622;0.000;0.000;2023-09-08T14:38:26;24.10;64.10
66708;DHT22;53622;0.000;0.000;2023-09-08T14:40:58;24.10;64.10
66708;DHT22;53622;0.000;0.000;2023-09-08T14:43:28;24.10;64.10
66708;DHT22;53622;0.000;0.000;2023-09-08T14:45:59;24.10;64.10
66708;DHT22;53622;0.000;0.000;2023-09-08T14:48:30;24.20;64.20
66708;DHT22;53622;0.000;0.000;2023-09-08T14:51:00;24.20;64.20
66708;DHT22;53622;0.000;0.000;2023-09-08T14:53:29;24.10;64.00
66708;DHT22;53622;0.000;0.000;2023-09-08T14:56:00;24.20;64.10
66708;DHT22;53622;0.000;0.000;2023-09-08T14:58:31;24.20;64.20
66708;DHT22;53622;0.000;0.000;2023-09-08T15:01:01;24.20;64.30
66708;DHT22;53622;0.000;0.000;2023-09-08T15:03:32;24.20;64.30
66708;DHT22;53622;0.000;0.000;2023-09-08T15:06:01;24.20;64.50
66708;DHT22;53622;0.000;0.000;2023-09-08T15:08:30;24.20;64.50
66708;DHT22;53622;0.000;0.000;2023-09-08T15:11:01;24.20;64.50
66708;DHT22;53622;0.000;0.000;2023-09-08T15:13:30;24.20;64.70
66708;DHT22;53622;0.000;0.000;2023-09-08T15:16:00;24.20;64.60
66708;DHT22;53622;0.000;0.000;2023-09-08T15:18:30;24.20;64.50
66708;DHT22;53622;0.000;0.000;2023-09-08T15:20:59;24.20;64.60
66708;DHT22;53622;0.000;0.000;2023-09-08T15:23:29;24.20;64.60
66708;DHT22;53622;0.000;0.000;2023-09-08T15:25:59;24.20;64.60
66708;DHT22;53622;0.000;0.000;2023-09-08T15:28:29;24.20;64.70
66708;DHT22;53622;0.000;0.000;2023-09-08T15:30:59;24.20;64.80
66708;DHT22;53622;0.000;0.000;2023-09-08T15:33:28;24.20;65.30
66708;DHT22;53622;0.000;0.000;2023-09-08T15:35:57;24.20;65.30
66708;DHT22;53622;0.000;0.000;2023-09-08T15:38:26;24.20;65.00
66708;DHT22;53622;0.000;0.000;2023-09-08T15:41:14;24.30;65.30
66708;DHT22;53622;0.000;0.000;2023-09-08T15:43:47;24.30;65.40
66708;DHT22;53622;0.000;0.000;2023-09-08T15:46:18;24.30;65.30
66708;DHT22;53622;0.000;0.000;2023-09-08T15:48:47;24.20;65.40
66708;DHT22;53622;0.000;0.000;2023-09-08T15:51:16;24.20;65.40
66708;DHT22;53622;0.000;0.000;2023-09-08T15:53:45;24.20;65.40
66708;DHT22;53622;0.000;0.000;2023-09-08T15:56:16;24.30;65.50
66708;DHT22;53622;0.000;0.000;2023-09-08T15:58:45;24.30;65.60
66708;DHT22;53622;0.000;0.000;2023-09-08T16:01:14;24.20;66.50
66708;DHT22;53622;0.000;0.000;2023-09-08T16:03:43;24.30;67.00
66708;DHT22;53622;0.000;0.000;2023-09-08T16:06:13;24.20;66.80